Estación Meteorológica Peña el Pijo (Robertgarden) [ 02/21/18 08:27:08 CET ]

Fecha Hora Presion(HPa) Temp (°C) Humedad % Rocio (°C) Viento ( m/s) Direccion Lluvia 1Hora(mm) Lluvia 24H(mm) LLuvia Total(mm)
2018-Feb-01 01:01:43 1005.800 3.6 80 0.5         62.67
2018-Feb-01 02:01:44 1005.400 4.8 79 1.4         62.67
2018-Feb-01 03:04:10 1004.500 5.8 74 1.5         62.67
2018-Feb-01 04:01:42 1003.900 5.2 74 0.9         62.67
2018-Feb-01 05:02:07 1003.100 4.9 75 0.8         62.67
2018-Feb-01 06:01:51 1002.800 4.9 74 0.6         62.67
2018-Feb-01 07:01:46 1002.500 3.9 74 -0.3         62.67
2018-Feb-01 08:01:42 1002.400 2.4 76 -1.4         62.67
2018-Feb-01 09:01:54 1002.100 4.4 77 0.7         62.67
2018-Feb-01 10:01:44 1002.200 7.5 72 2.8         62.67
2018-Feb-01 11:01:52 1002.000 9.9 64 3.4         62.67
2018-Feb-01 12:01:49 1001.300 10.9 57 2.7         62.67
2018-Feb-01 13:01:51 1000.500 10.4 59 2.7 0.8 N     62.67
2018-Feb-01 14:01:57 999.000 9.7 57 1.6 1.8 NNW     62.67
2018-Feb-01 15:01:43 998.200 8.5 61 1.4         62.67
2018-Feb-01 16:01:51 997.600 7.9 64 1.5 1.2 NW     62.67
2018-Feb-01 17:01:57 996.900 7.5 64 1.1         62.67
2018-Feb-01 18:01:50 996.300 7.3 64 0.9         62.67
2018-Feb-01 19:01:49 996.000 6.6 65 0.5         62.67
2018-Feb-01 20:01:47 995.800 5.9 69 0.7         62.67
2018-Feb-01 21:01:45 994.800 5.2 71 0.4         62.67
2018-Feb-01 22:01:41 995.200 3.5 78 0.0     2.59 2.59 65.26
2018-Feb-01 23:01:40 994.800 2.8 81 -0.1     1.03 3.62 66.30

Temperatura Máxima:10°    Temperatura Mínima:
Presión Máxima:1005.800 Hpa    Presión Mínima:994.800 Hpa


Volver